Time;durP1;ratioP1;P1;durP2;ratioP2;P2;SDS_P1;SDS_P2;PMS_P1;PMS_P2;Temp;Humidity;BMP_temperature;BMP_pressure;BME280_temperature;BME280_humidity;BME280_pressure;Samples;Min_cycle;Max_cycle;Signal;HPM_P1;HPM_P2
2021/05/01 00:01:25;;;;;;;26.20;18.67;;;9.40;99.90;;;;;;5028579;28;20587;-71
2021/05/01 00:03:51;;;;;;;26.40;19.70;;;9.40;99.90;;;;;;5025723;28;20204;-70
2021/05/01 00:06:16;;;;;;;26.00;19.33;;;9.40;99.90;;;;;;5027034;28;20195;-71
2021/05/01 00:08:42;;;;;;;23.07;17.10;;;9.40;99.90;;;;;;5027736;28;20611;-71
2021/05/01 00:11:08;;;;;;;27.43;19.30;;;9.50;99.90;;;;;;5025554;28;20267;-71
2021/05/01 00:13:34;;;;;;;29.53;19.73;;;9.40;99.90;;;;;;5026705;28;20271;-71
2021/05/01 00:16:01;;;;;;;28.00;19.80;;;9.40;99.90;;;;;;5008709;28;20204;-71
2021/05/01 00:18:27;;;;;;;27.20;18.50;;;9.40;99.90;;;;;;5027651;28;20481;-70
2021/05/01 00:20:53;;;;;;;30.80;20.20;;;9.40;99.90;;;;;;5024781;28;20451;-70
2021/05/01 00:23:19;;;;;;;26.57;18.47;;;9.30;99.90;;;;;;5025789;28;20356;-68
2021/05/01 00:25:44;;;;;;;33.23;19.93;;;9.30;99.90;;;;;;5027462;28;20714;-70
2021/05/01 00:28:11;;;;;;;24.63;17.07;;;9.30;99.90;;;;;;5026200;28;20192;-71
2021/05/01 00:30:37;;;;;;;27.33;20.90;;;9.20;99.90;;;;;;5022414;28;20255;-70
2021/05/01 00:33:04;;;;;;;31.17;19.43;;;9.20;99.90;;;;;;5028144;28;20913;-73
2021/05/01 00:35:29;;;;;;;28.57;19.07;;;9.20;99.90;;;;;;5025706;28;20536;-70
2021/05/01 00:37:55;;;;;;;27.20;19.63;;;9.20;99.90;;;;;;5020877;28;20451;-71
2021/05/01 00:40:21;;;;;;;29.03;19.30;;;9.10;99.90;;;;;;5026852;28;20227;-72
2021/05/01 00:42:47;;;;;;;27.93;19.10;;;9.10;99.90;;;;;;5006699;28;20185;-71
2021/05/01 00:45:13;;;;;;;30.03;19.03;;;9.10;99.90;;;;;;5026408;28;20423;-71
2021/05/01 00:47:39;;;;;;;28.83;20.73;;;9.10;99.90;;;;;;5025280;28;20778;-70
2021/05/01 00:50:05;;;;;;;29.50;20.70;;;9.10;99.90;;;;;;5022150;28;20462;-71
2021/05/01 00:52:32;;;;;;;24.73;16.77;;;9.10;99.90;;;;;;5027989;28;20620;-68
2021/05/01 00:54:59;;;;;;;24.47;18.80;;;9.10;99.90;;;;;;5025490;28;20459;-71
2021/05/01 00:57:25;;;;;;;32.30;20.07;;;9.10;99.90;;;;;;5022993;28;21119;-69
2021/05/01 00:59:50;;;;;;;27.17;19.23;;;9.10;99.90;;;;;;5026084;28;20501;-71
2021/05/01 01:02:21;;;;;;;29.10;19.03;;;9.10;99.90;;;;;;5026779;28;20921;-71
2021/05/01 01:04:47;;;;;;;32.60;19.87;;;9.00;99.90;;;;;;5024610;28;20234;-71
2021/05/01 01:07:13;;;;;;;27.87;19.80;;;9.10;99.90;;;;;;5026392;28;20455;-71
2021/05/01 01:09:38;;;;;;;28.23;20.13;;;9.00;99.90;;;;;;5026720;28;20192;-72
2021/05/01 01:12:06;;;;;;;24.20;17.77;;;9.00;99.90;;;;;;5028312;28;20191;-71
2021/05/01 01:14:32;;;;;;;24.70;18.20;;;9.00;99.90;;;;;;5028044;28;20220;-70
2021/05/01 01:16:57;;;;;;;30.17;19.13;;;9.00;99.90;;;;;;5038033;28;20440;-68
2021/05/01 01:19:23;;;;;;;28.43;20.17;;;9.00;99.90;;;;;;5037958;28;20712;-70
2021/05/01 01:21:49;;;;;;;29.50;20.10;;;9.00;99.90;;;;;;5026595;28;20256;-71
2021/05/01 01:24:16;;;;;;;24.47;19.20;;;8.90;99.90;;;;;;5025418;28;20189;-70
2021/05/01 01:26:42;;;;;;;32.10;20.93;;;8.90;99.90;;;;;;5025139;28;20427;-70
2021/05/01 01:29:12;;;;;;;31.80;21.77;;;8.90;99.90;;;;;;5020475;28;20474;-69
2021/05/01 01:31:38;;;;;;;30.77;21.93;;;8.90;99.90;;;;;;5007291;28;20432;-69
2021/05/01 01:34:05;;;;;;;29.10;19.97;;;8.90;99.90;;;;;;5023208;28;20422;-70
2021/05/01 01:36:31;;;;;;;28.63;21.00;;;8.90;99.90;;;;;;5023989;28;20416;-71
2021/05/01 01:38:57;;;;;;;26.47;19.30;;;8.90;99.90;;;;;;5023399;28;20799;-70
2021/05/01 01:41:23;;;;;;;31.50;21.63;;;8.80;99.90;;;;;;5021292;28;20458;-70
2021/05/01 01:43:49;;;;;;;27.33;19.13;;;8.90;99.90;;;;;;5026737;28;20192;-71
2021/05/01 01:46:15;;;;;;;28.40;19.77;;;8.80;99.90;;;;;;5022777;28;20960;-69
2021/05/01 01:48:40;;;;;;;28.37;18.87;;;8.80;99.90;;;;;;5021673;28;20682;-70
2021/05/01 01:51:06;;;;;;;30.10;19.37;;;8.80;99.90;;;;;;5024050;28;20448;-71
2021/05/01 01:53:32;;;;;;;27.50;20.53;;;8.80;99.90;;;;;;5021167;28;20587;-71
2021/05/01 01:55:58;;;;;;;29.40;20.23;;;8.80;99.90;;;;;;5024640;28;20211;-71
2021/05/01 01:58:23;;;;;;;27.63;20.43;;;8.80;99.90;;;;;;5024928;28;20275;-71
2021/05/01 02:00:51;;;;;;;36.30;19.97;;;8.80;99.90;;;;;;5025063;28;21064;-70
2021/05/01 02:03:17;;;;;;;28.37;18.83;;;8.70;99.90;;;;;;5025788;28;20270;-71
2021/05/01 02:05:44;;;;;;;27.20;19.60;;;8.70;99.90;;;;;;5024035;28;20442;-71
2021/05/01 02:08:10;;;;;;;27.70;19.60;;;8.70;99.90;;;;;;5023648;28;20439;-71
2021/05/01 02:10:36;;;;;;;30.93;20.30;;;8.70;99.90;;;;;;5024689;28;20454;-70
2021/05/01 02:13:04;;;;;;;30.30;20.20;;;8.70;99.90;;;;;;5023277;28;20430;-70
2021/05/01 02:15:29;;;;;;;26.90;19.03;;;8.70;99.90;;;;;;5025850;28;20212;-69
2021/05/01 02:17:56;;;;;;;30.40;19.07;;;8.60;99.90;;;;;;5023626;28;20516;-70
2021/05/01 02:20:28;;;;;;;24.93;17.90;;;8.60;99.90;;;;;;5022960;28;20200;-70
2021/05/01 02:22:53;;;;;;;26.77;20.17;;;8.50;99.90;;;;;;5024241;28;21257;-70
2021/05/01 02:25:19;;;;;;;27.00;19.30;;;8.50;99.90;;;;;;5023151;28;20473;-70
2021/05/01 02:27:46;;;;;;;29.20;20.60;;;8.50;99.90;;;;;;5019051;28;20279;-71
2021/05/01 02:30:17;;;;;;;29.03;18.13;;;8.50;99.90;;;;;;5023173;28;20192;-69
2021/05/01 02:32:42;;;;;;;25.57;18.33;;;8.40;99.90;;;;;;5022337;28;20470;-70
2021/05/01 02:35:11;;;;;;;32.70;21.03;;;8.30;99.90;;;;;;5027188;28;20507;-69
2021/05/01 02:37:37;;;;;;;26.87;19.57;;;8.30;99.90;;;;;;5006897;28;20188;-68
2021/05/01 02:40:07;;;;;;;29.27;20.10;;;8.30;99.90;;;;;;5026758;28;20435;-68
2021/05/01 02:42:33;;;;;;;26.57;19.87;;;8.30;99.90;;;;;;5029403;28;20427;-70
2021/05/01 02:44:59;;;;;;;29.27;21.27;;;8.30;99.90;;;;;;5027171;28;20824;-69
2021/05/01 02:47:24;;;;;;;31.20;21.87;;;8.30;99.90;;;;;;5027314;28;20243;-71
2021/05/01 02:49:50;;;;;;;24.67;18.67;;;8.20;99.90;;;;;;5028609;28;21858;-72
2021/05/01 02:52:16;;;;;;;28.07;19.53;;;8.20;99.90;;;;;;5028987;28;20662;-70
2021/05/01 02:54:41;;;;;;;27.77;19.77;;;8.20;99.90;;;;;;5027707;28;20208;-69
2021/05/01 02:57:07;;;;;;;22.77;17.70;;;8.20;99.90;;;;;;5029295;28;20263;-69
2021/05/01 02:59:32;;;;;;;26.90;18.57;;;8.20;99.90;;;;;;5028938;28;20638;-70
2021/05/01 03:01:58;;;;;;;28.50;18.90;;;8.10;99.90;;;;;;5030593;28;20201;-71
2021/05/01 03:04:24;;;;;;;31.67;19.40;;;8.10;99.90;;;;;;5027959;28;20192;-71
2021/05/01 03:06:49;;;;;;;22.20;17.67;;;8.20;99.90;;;;;;5012577;28;20652;-71
2021/05/01 03:09:15;;;;;;;28.33;18.20;;;8.10;99.90;;;;;;5028580;28;20184;-70
2021/05/01 03:11:41;;;;;;;26.43;18.40;;;8.10;99.90;;;;;;5025245;28;20208;-69
2021/05/01 03:14:07;;;;;;;27.53;19.57;;;8.10;99.90;;;;;;5026841;28;20659;-71
2021/05/01 03:16:32;;;;;;;27.67;18.63;;;8.10;99.90;;;;;;5004924;28;20225;-72
2021/05/01 03:18:58;;;;;;;31.07;18.83;;;8.10;99.90;;;;;;5026517;28;20439;-70
2021/05/01 03:21:23;;;;;;;27.30;18.20;;;8.00;99.90;;;;;;5023291;28;20201;-70
2021/05/01 03:23:50;;;;;;;25.80;19.07;;;8.00;99.90;;;;;;5025176;28;20591;-71
2021/05/01 03:26:17;;;;;;;28.83;19.10;;;8.00;99.90;;;;;;5028133;28;20187;-70
2021/05/01 03:28:44;;;;;;;25.80;17.80;;;8.00;99.90;;;;;;5022829;28;20439;-71
2021/05/01 03:31:10;;;;;;;25.80;18.73;;;8.00;99.90;;;;;;5024542;28;20434;-68
2021/05/01 03:33:36;;;;;;;28.10;18.30;;;8.10;99.90;;;;;;5028299;28;20440;-71
2021/05/01 03:36:01;;;;;;;26.77;18.90;;;8.00;99.90;;;;;;5029962;28;20471;-71
2021/05/01 03:38:27;;;;;;;27.73;19.23;;;8.00;99.90;;;;;;5025135;28;20247;-71
2021/05/01 03:40:52;;;;;;;26.23;18.33;;;8.00;99.90;;;;;;5027822;28;20583;-69
2021/05/01 03:43:19;;;;;;;26.53;17.23;;;7.90;99.90;;;;;;5026745;28;20191;-71
2021/05/01 03:45:48;;;;;;;37.07;18.50;;;7.90;99.90;;;;;;5029677;28;20307;-70
2021/05/01 03:48:14;;;;;;;28.37;19.97;;;7.90;99.90;;;;;;5025864;28;20952;-70
2021/05/01 03:50:39;;;;;;;30.10;18.07;;;7.90;99.90;;;;;;5027237;28;20447;-69
2021/05/01 03:53:05;;;;;;;28.73;18.83;;;7.90;99.90;;;;;;5028169;28;20983;-70
2021/05/01 03:55:31;;;;;;;24.23;17.50;;;7.90;99.90;;;;;;5028827;28;20204;-70
2021/05/01 03:57:57;;;;;;;27.03;18.20;;;7.90;99.90;;;;;;5024555;28;20256;-71
2021/05/01 04:00:23;;;;;;;25.23;18.37;;;7.90;99.90;;;;;;5009698;28;20531;-70
2021/05/01 04:02:49;;;;;;;24.07;16.93;;;7.90;99.90;;;;;;5027154;28;20187;-70
2021/05/01 04:05:15;;;;;;;26.40;18.80;;;7.90;99.90;;;;;;5028956;28;20435;-70
2021/05/01 04:07:41;;;;;;;25.70;17.87;;;7.90;99.90;;;;;;5026439;28;20502;-70
2021/05/01 04:10:08;;;;;;;29.03;19.60;;;7.90;99.90;;;;;;5028130;28;20227;-69
2021/05/01 04:12:34;;;;;;;23.50;17.33;;;7.90;99.90;;;;;;5023952;28;20425;-69
2021/05/01 04:14:59;;;;;;;30.17;18.03;;;7.80;99.90;;;;;;5008369;28;21020;-70
2021/05/01 04:17:25;;;;;;;31.60;19.90;;;7.80;99.90;;;;;;5025276;28;20279;-70
2021/05/01 04:19:51;;;;;;;27.37;18.63;;;7.80;99.90;;;;;;5028237;28;20188;-71
2021/05/01 04:22:18;;;;;;;31.73;19.80;;;7.70;99.90;;;;;;5027100;28;20181;-70
2021/05/01 04:24:43;;;;;;;25.63;18.50;;;7.70;99.90;;;;;;5027979;28;20422;-69
2021/05/01 04:27:09;;;;;;;25.33;16.70;;;7.70;99.90;;;;;;5027465;28;21140;-70
2021/05/01 04:29:35;;;;;;;24.63;17.43;;;7.70;99.90;;;;;;5027029;28;20196;-70
2021/05/01 04:32:00;;;;;;;25.97;18.80;;;7.70;99.90;;;;;;5028488;28;20224;-67
2021/05/01 04:34:26;;;;;;;28.37;18.10;;;7.80;99.90;;;;;;5025765;28;20713;-70
2021/05/01 04:36:51;;;;;;;26.10;18.40;;;7.70;99.90;;;;;;5026775;28;20186;-73
2021/05/01 04:39:17;;;;;;;24.70;17.33;;;7.70;99.90;;;;;;5004091;28;20178;-71
2021/05/01 04:41:43;;;;;;;28.10;16.33;;;7.70;99.90;;;;;;5020449;28;20215;-68
2021/05/01 04:44:08;;;;;;;21.73;16.73;;;7.70;99.90;;;;;;5026480;28;20185;-70
2021/05/01 04:46:34;;;;;;;30.13;19.80;;;7.70;99.90;;;;;;5026273;28;20190;-72
2021/05/01 04:49:00;;;;;;;25.33;16.70;;;7.70;99.90;;;;;;5027008;28;20182;-70
2021/05/01 04:51:25;;;;;;;23.37;17.83;;;7.70;99.90;;;;;;5027312;28;20719;-69
2021/05/01 04:53:51;;;;;;;25.50;18.00;;;7.70;99.90;;;;;;5018452;28;20185;-70
2021/05/01 04:56:17;;;;;;;23.13;17.23;;;7.70;99.90;;;;;;5040816;28;20196;-70
2021/05/01 04:58:42;;;;;;;23.90;16.70;;;7.70;99.90;;;;;;5032250;28;20659;-71
2021/05/01 05:01:08;;;;;;;22.10;17.10;;;7.70;99.90;;;;;;5026707;28;20202;-71
2021/05/01 05:03:34;;;;;;;23.50;16.93;;;7.70;99.90;;;;;;5008692;28;20470;-71
2021/05/01 05:05:59;;;;;;;24.17;14.80;;;7.70;99.90;;;;;;5027855;28;20435;-71
2021/05/01 05:08:25;;;;;;;21.27;15.63;;;7.70;99.90;;;;;;5022969;28;20211;-70
2021/05/01 05:10:51;;;;;;;23.87;16.57;;;7.70;99.90;;;;;;5026062;28;20208;-70
2021/05/01 05:13:26;;;;;;;29.07;18.70;;;7.70;99.90;;;;;;5005760;28;20200;-69
2021/05/01 05:15:53;;;;;;;21.20;14.67;;;7.80;99.90;;;;;;5026251;28;20195;-69
2021/05/01 05:18:19;;;;;;;23.37;16.47;;;7.80;99.90;;;;;;5024382;28;20765;-69
2021/05/01 05:20:45;;;;;;;21.53;14.60;;;7.90;99.90;;;;;;5008468;28;20897;-70
2021/05/01 05:23:11;;;;;;;21.30;15.10;;;7.90;99.90;;;;;;5026194;28;20435;-70
2021/05/01 05:25:37;;;;;;;22.83;14.77;;;7.90;99.90;;;;;;5024635;28;20506;-69
2021/05/01 05:28:03;;;;;;;21.50;15.57;;;8.00;99.90;;;;;;5024650;28;20190;-69
2021/05/01 05:30:29;;;;;;;23.53;15.20;;;8.00;99.90;;;;;;5024187;28;20435;-70
2021/05/01 05:32:55;;;;;;;25.60;14.97;;;8.00;99.90;;;;;;5027638;28;20814;-72
2021/05/01 05:35:21;;;;;;;19.17;15.03;;;8.10;99.90;;;;;;5026202;28;20628;-70
2021/05/01 05:37:47;;;;;;;21.20;14.27;;;8.20;99.90;;;;;;5025695;28;20423;-71
2021/05/01 05:40:13;;;;;;;23.27;14.40;;;8.20;99.90;;;;;;5026671;28;20321;-71
2021/05/01 05:42:41;;;;;;;19.73;14.43;;;8.30;99.90;;;;;;5005725;28;20204;-69
2021/05/01 05:45:08;;;;;;;20.83;15.53;;;8.30;99.90;;;;;;5025163;28;20430;-69
2021/05/01 05:47:34;;;;;;;20.57;15.10;;;8.40;99.90;;;;;;5025984;28;20438;-70
2021/05/01 05:50:00;;;;;;;24.03;15.13;;;8.50;99.90;;;;;;5027125;28;20439;-70
2021/05/01 05:52:26;;;;;;;18.77;14.53;;;8.50;99.90;;;;;;5023031;28;20485;-69
2021/05/01 05:54:51;;;;;;;21.07;14.70;;;8.60;99.90;;;;;;5026781;28;20212;-69
2021/05/01 05:57:17;;;;;;;18.53;13.00;;;8.70;99.90;;;;;;5025431;28;20188;-70
2021/05/01 05:59:43;;;;;;;16.43;12.73;;;8.80;99.90;;;;;;5022648;28;20202;-69
2021/05/01 06:02:13;;;;;;;17.73;13.03;;;8.90;99.90;;;;;;5026549;28;20886;-68
2021/05/01 06:04:49;;;;;;;16.50;12.67;;;8.90;99.90;;;;;;5025304;28;20463;-69
2021/05/01 06:07:26;;;;;;;16.03;12.50;;;9.00;99.90;;;;;;5029406;28;20418;-70
2021/05/01 06:09:55;;;;;;;18.93;13.90;;;9.10;99.90;;;;;;5027866;28;20455;-71
2021/05/01 06:12:22;;;;;;;15.47;12.43;;;9.20;99.90;;;;;;5026407;28;20429;-70
2021/05/01 06:14:50;;;;;;;15.93;12.57;;;9.20;99.90;;;;;;5030479;28;20467;-69
2021/05/01 06:17:21;;;;;;;16.27;11.60;;;9.30;99.90;;;;;;5029248;28;20459;-72
2021/05/01 06:19:48;;;;;;;16.13;12.60;;;9.30;99.90;;;;;;5026754;28;20419;-69
2021/05/01 06:22:14;;;;;;;18.60;12.87;;;9.40;99.90;;;;;;5029404;28;20419;-71
2021/05/01 06:24:43;;;;;;;18.90;12.57;;;9.50;99.90;;;;;;5028100;28;20481;-69
2021/05/01 06:27:09;;;;;;;16.53;11.67;;;9.60;99.90;;;;;;5025562;28;20287;-69
2021/05/01 06:29:38;;;;;;;14.30;11.37;;;9.80;99.90;;;;;;5028317;28;20787;-70
2021/05/01 06:32:10;;;;;;;17.20;12.10;;;9.90;99.90;;;;;;5027890;28;20438;-71
2021/05/01 06:34:37;;;;;;;14.30;12.77;;;10.00;99.90;;;;;;5009646;28;20977;-70
2021/05/01 06:37:03;;;;;;;16.53;11.53;;;10.10;99.90;;;;;;5020182;28;20438;-69
2021/05/01 06:39:33;;;;;;;15.43;11.43;;;10.20;99.90;;;;;;5026578;28;20838;-70
2021/05/01 06:42:01;;;;;;;15.10;12.27;;;10.20;99.90;;;;;;5021627;28;20426;-71
2021/05/01 06:45:03;;;;;;;14.63;11.00;;;10.30;99.90;;;;;;5016615;28;20423;-71
2021/05/01 06:47:32;;;;;;;12.77;11.47;;;10.40;99.90;;;;;;5024526;28;20435;-70
2021/05/01 06:50:09;;;;;;;13.77;10.97;;;10.50;99.90;;;;;;5022065;28;20440;-68
2021/05/01 06:52:43;;;;;;;15.30;11.20;;;10.60;99.90;;;;;;5012883;28;20428;-70
2021/05/01 06:55:10;;;;;;;13.33;11.07;;;10.60;99.90;;;;;;5022496;28;20561;-69
2021/05/01 06:57:37;;;;;;;15.00;12.60;;;10.70;99.90;;;;;;5023959;28;21014;-70
2021/05/01 07:00:06;;;;;;;14.90;12.43;;;10.70;99.90;;;;;;5017884;28;20439;-71
2021/05/01 07:02:35;;;;;;;16.70;12.20;;;10.80;99.90;;;;;;5023884;28;20447;-69
2021/05/01 07:05:00;;;;;;;17.50;12.90;;;10.90;99.90;;;;;;5023973;28;20507;-72
2021/05/01 07:07:28;;;;;;;13.47;10.63;;;10.90;99.90;;;;;;5022481;28;20462;-70
2021/05/01 07:09:55;;;;;;;13.97;11.40;;;10.90;99.90;;;;;;5027399;28;21636;-67
2021/05/01 07:12:23;;;;;;;14.80;12.00;;;10.90;99.90;;;;;;5002911;28;20436;-72
2021/05/01 07:14:50;;;;;;;14.97;10.97;;;10.90;99.90;;;;;;5026491;28;20462;-70
2021/05/01 07:17:16;;;;;;;15.30;11.57;;;11.00;99.90;;;;;;5015372;28;20449;-72
2021/05/01 07:19:42;;;;;;;14.00;11.20;;;11.10;99.90;;;;;;5022426;28;20438;-71
2021/05/01 07:22:10;;;;;;;13.00;11.33;;;11.00;99.90;;;;;;5019856;28;20443;-71
2021/05/01 07:24:36;;;;;;;13.87;11.47;;;11.10;99.90;;;;;;5019284;28;20432;-69
2021/05/01 07:27:04;;;;;;;13.80;11.30;;;11.00;99.90;;;;;;5013014;28;21246;-71
2021/05/01 07:29:44;;;;;;;11.73;10.50;;;11.00;99.90;;;;;;5024155;28;20518;-71
2021/05/01 07:32:14;;;;;;;13.53;11.30;;;11.10;99.90;;;;;;5019413;28;20416;-70
2021/05/01 07:34:51;;;;;;;12.67;11.00;;;11.20;99.90;;;;;;5021212;28;20500;-70
2021/05/01 07:37:23;;;;;;;15.50;12.27;;;11.30;99.90;;;;;;5024993;28;20466;-69
2021/05/01 07:39:51;;;;;;;12.60;11.27;;;11.40;99.90;;;;;;5027285;28;20416;-72
2021/05/01 07:42:18;;;;;;;12.80;11.20;;;11.50;99.90;;;;;;5027928;28;20894;-71
2021/05/01 07:44:46;;;;;;;13.63;10.87;;;11.50;99.90;;;;;;5028863;28;20808;-70
2021/05/01 07:47:14;;;;;;;17.37;12.63;;;11.60;99.90;;;;;;5026184;28;20423;-68
2021/05/01 07:49:40;;;;;;;15.93;11.90;;;11.60;99.90;;;;;;5028155;28;20419;-70
2021/05/01 07:52:07;;;;;;;16.67;12.37;;;11.70;99.90;;;;;;5029346;28;20945;-70
2021/05/01 07:54:38;;;;;;;20.20;14.13;;;11.70;99.90;;;;;;5023236;28;20803;-71
2021/05/01 07:57:04;;;;;;;19.03;14.40;;;11.70;99.90;;;;;;5027993;28;20518;-70
2021/05/01 07:59:30;;;;;;;16.90;13.90;;;11.70;99.90;;;;;;5024432;28;20511;-72
2021/05/01 08:01:55;;;;;;;15.77;13.97;;;11.80;99.90;;;;;;5023918;28;20207;-72
2021/05/01 08:04:21;;;;;;;18.47;13.30;;;11.90;99.90;;;;;;5023725;28;20176;-68
2021/05/01 08:06:46;;;;;;;19.00;15.07;;;12.00;99.90;;;;;;5025756;28;20184;-70
2021/05/01 08:09:12;;;;;;;17.93;14.83;;;12.00;99.90;;;;;;5022951;28;20591;-70
2021/05/01 08:11:38;;;;;;;19.80;13.80;;;12.10;99.90;;;;;;5019223;28;20208;-71
2021/05/01 08:14:06;;;;;;;16.87;13.67;;;12.10;99.90;;;;;;5022926;28;20215;-72
2021/05/01 08:16:33;;;;;;;15.77;13.27;;;12.20;99.90;;;;;;5021270;28;20223;-70
2021/05/01 08:19:01;;;;;;;15.23;12.70;;;12.20;99.90;;;;;;5023606;28;20439;-69
2021/05/01 08:21:28;;;;;;;18.97;14.60;;;12.20;99.90;;;;;;5022590;28;20451;-70
2021/05/01 08:23:54;;;;;;;16.07;12.50;;;12.20;99.90;;;;;;5023626;28;20792;-70
2021/05/01 08:26:19;;;;;;;18.03;15.23;;;12.30;99.90;;;;;;5020158;28;20438;-72
2021/05/01 08:28:45;;;;;;;17.77;14.20;;;12.40;99.90;;;;;;5010148;28;20176;-71
2021/05/01 08:31:11;;;;;;;18.73;14.97;;;12.30;99.90;;;;;;5023228;28;20203;-71
2021/05/01 08:33:36;;;;;;;19.27;14.57;;;12.30;99.90;;;;;;5027031;28;20184;-72
2021/05/01 08:36:02;;;;;;;20.40;13.60;;;12.40;99.90;;;;;;5022139;28;20192;-71
2021/05/01 08:38:32;;;;;;;17.70;14.37;;;12.40;99.90;;;;;;5020615;28;20264;-71
2021/05/01 08:40:59;;;;;;;20.40;15.03;;;12.40;99.90;;;;;;5025166;28;20443;-70
2021/05/01 08:43:25;;;;;;;17.63;14.80;;;12.50;99.90;;;;;;5021691;28;20446;-70
2021/05/01 08:45:53;;;;;;;20.40;15.40;;;12.50;99.90;;;;;;5020429;28;20939;-72
2021/05/01 08:48:21;;;;;;;21.20;16.00;;;12.50;99.90;;;;;;5022907;28;20231;-70
2021/05/01 08:50:50;;;;;;;18.40;14.97;;;12.60;99.90;;;;;;5018486;28;20462;-68
2021/05/01 08:53:16;;;;;;;18.77;15.10;;;12.60;99.90;;;;;;5023577;28;20427;-71
2021/05/01 08:55:42;;;;;;;20.13;16.80;;;12.60;99.90;;;;;;5023654;28;20454;-70
2021/05/01 08:58:11;;;;;;;23.17;15.20;;;12.60;99.90;;;;;;5020478;28;20192;-73
2021/05/01 09:00:42;;;;;;;22.63;16.60;;;12.70;99.90;;;;;;5018395;28;21832;-70
2021/05/01 09:03:11;;;;;;;21.37;15.83;;;12.60;99.90;;;;;;5024100;28;20457;-69
2021/05/01 09:05:38;;;;;;;19.20;15.90;;;12.70;99.90;;;;;;5017918;28;20430;-70
2021/05/01 09:08:05;;;;;;;19.57;15.40;;;12.60;99.90;;;;;;5022069;28;20422;-71
2021/05/01 09:10:46;;;;;;;20.03;16.33;;;12.60;99.90;;;;;;5002334;28;20459;-70
2021/05/01 09:13:22;;;;;;;22.97;16.63;;;12.60;99.90;;;;;;4999933;28;20446;-70
2021/05/01 09:15:58;;;;;;;20.70;15.70;;;12.60;99.90;;;;;;5019408;28;20451;-70
2021/05/01 09:18:24;;;;;;;22.27;17.23;;;12.70;99.90;;;;;;5021809;28;20551;-69
2021/05/01 09:20:50;;;;;;;21.47;17.27;;;12.80;99.90;;;;;;5023964;28;20496;-70
2021/05/01 09:23:16;;;;;;;20.33;16.60;;;12.90;99.90;;;;;;5021550;28;20887;-71
2021/05/01 09:25:54;;;;;;;20.30;16.90;;;13.00;99.90;;;;;;5023699;28;20427;-71
2021/05/01 09:28:22;;;;;;;24.17;18.50;;;13.10;99.90;;;;;;5022012;28;20518;-71
2021/05/01 09:31:06;;;;;;;25.87;17.37;;;13.20;99.90;;;;;;5019864;28;20449;-71
2021/05/01 09:33:36;;;;;;;22.63;18.00;;;13.20;99.90;;;;;;5020438;28;20944;-71
2021/05/01 09:36:13;;;;;;;28.30;17.47;;;13.20;99.90;;;;;;5016564;28;20466;-68
2021/05/01 09:38:58;;;;;;;25.07;17.73;;;13.40;99.90;;;;;;5014966;28;20431;-70
2021/05/01 09:41:26;;;;;;;26.37;19.90;;;13.40;99.90;;;;;;5021281;28;20965;-69
2021/05/01 09:44:05;;;;;;;25.10;18.17;;;13.50;99.90;;;;;;5006643;28;20448;-71
2021/05/01 09:46:43;;;;;;;27.20;18.80;;;13.50;99.90;;;;;;5020041;28;20430;-70
2021/05/01 09:49:19;;;;;;;27.43;18.43;;;13.60;99.90;;;;;;5016670;28;20430;-69
2021/05/01 09:51:55;;;;;;;22.80;17.90;;;13.80;99.90;;;;;;5021026;28;20496;-69
2021/05/01 09:54:31;;;;;;;23.47;18.20;;;13.80;99.90;;;;;;5019463;28;20458;-70
2021/05/01 09:56:59;;;;;;;20.27;16.87;;;13.80;99.90;;;;;;5023212;28;20502;-70
2021/05/01 09:59:43;;;;;;;22.30;18.47;;;13.90;99.90;;;;;;5019177;28;20439;-69
2021/05/01 10:02:10;;;;;;;27.37;19.33;;;14.00;99.90;;;;;;5022807;28;20957;-70
2021/05/01 10:04:37;;;;;;;21.00;17.90;;;14.00;99.90;;;;;;5002439;28;20824;-68
2021/05/01 10:07:08;;;;;;;28.17;21.30;;;14.10;99.90;;;;;;5022203;28;21017;-70
2021/05/01 10:09:39;;;;;;;25.30;18.50;;;14.20;99.90;;;;;;5018142;28;20431;-69
2021/05/01 10:12:11;;;;;;;23.63;18.60;;;14.20;99.90;;;;;;5022788;28;20463;-69
2021/05/01 10:14:46;;;;;;;27.53;18.57;;;14.30;99.90;;;;;;5002177;28;20573;-70
2021/05/01 10:17:32;;;;;;;24.13;19.47;;;14.40;99.90;;;;;;5020229;28;21005;-70
2021/05/01 10:20:06;;;;;;;23.10;17.77;;;14.40;99.90;;;;;;5023392;28;21416;-70
2021/05/01 10:22:41;;;;;;;28.43;18.77;;;14.50;99.90;;;;;;5021334;28;21135;-69
2021/05/01 10:25:12;;;;;;;29.33;20.33;;;14.70;99.90;;;;;;5019454;28;20517;-71
2021/05/01 10:27:56;;;;;;;25.27;20.40;;;14.90;99.90;;;;;;5023595;28;20514;-69
2021/05/01 10:33:33;;;;;;;23.13;19.27;;;15.30;99.90;;;;;;4995587;28;20851;-70
2021/05/01 10:36:05;;;;;;;25.33;18.77;;;15.40;99.90;;;;;;5021099;28;20465;-71
2021/05/01 10:38:32;;;;;;;22.20;16.00;;;15.60;99.90;;;;;;5000535;28;20433;-71
2021/05/01 10:41:07;;;;;;;25.67;18.00;;;15.60;99.90;;;;;;5020974;28;20530;-72
2021/05/01 10:43:36;;;;;;;24.20;17.73;;;15.60;99.90;;;;;;5021240;28;20438;-70
2021/05/01 10:46:07;;;;;;;21.57;17.03;;;15.60;99.90;;;;;;5020613;28;20530;-69
2021/05/01 10:48:40;;;;;;;22.50;16.80;;;15.60;99.90;;;;;;5022831;28;20423;-70
2021/05/01 10:51:08;;;;;;;21.87;17.50;;;15.60;99.90;;;;;;5020162;28;20455;-70
2021/05/01 10:53:36;;;;;;;23.93;18.90;;;15.50;99.90;;;;;;5023324;28;20427;-70
2021/05/01 10:56:04;;;;;;;23.30;18.90;;;15.50;99.90;;;;;;5027090;28;20478;-68
2021/05/01 10:58:41;;;;;;;23.00;18.83;;;15.50;99.90;;;;;;5022285;28;20535;-69
2021/05/01 11:01:28;;;;;;;23.50;19.40;;;15.40;99.90;;;;;;5025056;28;20458;-71
2021/05/01 11:03:58;;;;;;;22.40;18.60;;;15.40;99.90;;;;;;5023622;28;20430;-70
2021/05/01 11:06:26;;;;;;;23.93;19.43;;;15.30;99.90;;;;;;5018585;28;20430;-67
2021/05/01 11:09:09;;;;;;;23.00;18.67;;;15.30;99.90;;;;;;5021040;28;20498;-68
2021/05/01 11:11:39;;;;;;;22.20;18.07;;;15.20;99.90;;;;;;5021404;28;20515;-68
2021/05/01 11:14:22;;;;;;;26.93;20.00;;;15.20;99.90;;;;;;5022026;28;20435;-69
2021/05/01 11:17:09;;;;;;;23.23;19.50;;;15.20;99.90;;;;;;5020522;28;20521;-68
2021/05/01 11:19:45;;;;;;;23.50;17.77;;;15.20;99.90;;;;;;5023062;28;20425;-68
2021/05/01 11:22:18;;;;;;;22.40;18.30;;;15.20;99.90;;;;;;5023171;28;20477;-71
2021/05/01 11:24:45;;;;;;;21.77;17.47;;;15.20;99.90;;;;;;5024918;28;20423;-72
2021/05/01 11:27:10;;;;;;;20.77;16.90;;;15.20;99.90;;;;;;5003687;28;20444;-70
2021/05/01 11:29:38;;;;;;;21.27;17.30;;;15.10;99.90;;;;;;5028081;28;20422;-72
2021/05/01 11:32:05;;;;;;;22.20;17.83;;;15.00;99.90;;;;;;5009700;28;20423;-70
2021/05/01 11:34:32;;;;;;;25.17;19.63;;;15.00;99.90;;;;;;5026651;28;20435;-73
2021/05/01 11:37:01;;;;;;;22.33;18.43;;;15.00;99.90;;;;;;5025777;28;20941;-70
2021/05/01 11:39:28;;;;;;;22.70;17.67;;;15.00;99.90;;;;;;5027961;28;20531;-70
2021/05/01 11:41:55;;;;;;;20.93;18.03;;;15.00;99.90;;;;;;5025754;28;20427;-72
2021/05/01 11:44:24;;;;;;;20.90;18.13;;;15.00;99.90;;;;;;5022597;28;21134;-70
2021/05/01 11:47:08;;;;;;;19.90;16.60;;;15.00;99.90;;;;;;5004901;28;20522;-72
2021/05/01 11:49:34;;;;;;;23.40;17.70;;;14.90;99.90;;;;;;5026470;28;21033;-73
2021/05/01 11:52:18;;;;;;;21.10;18.27;;;15.00;99.90;;;;;;5023396;28;20545;-71
2021/05/01 11:55:34;;;;;;;22.07;18.37;;;15.00;99.90;;;;;;5008115;28;20643;-72
2021/05/01 11:58:02;;;;;;;20.67;16.80;;;15.10;99.90;;;;;;4981975;28;20443;-71
2021/05/01 12:00:37;;;;;;;23.30;18.90;;;15.10;99.90;;;;;;5006527;28;20447;-70
2021/05/01 12:03:24;;;;;;;20.43;17.60;;;15.20;99.90;;;;;;5022873;28;20800;-70
2021/05/01 12:05:58;;;;;;;20.00;16.57;;;15.20;99.90;;;;;;5022468;28;20439;-71
2021/05/01 12:08:24;;;;;;;23.97;17.23;;;15.10;99.90;;;;;;5029475;28;20438;-71
2021/05/01 12:11:07;;;;;;;19.33;17.27;;;15.00;99.90;;;;;;5027647;28;20459;-72
2021/05/01 12:13:35;;;;;;;23.00;18.80;;;15.10;99.90;;;;;;5022562;28;20439;-72
2021/05/01 12:16:02;;;;;;;22.93;17.57;;;15.00;99.90;;;;;;5024041;28;20463;-70
2021/05/01 12:18:42;;;;;;;21.87;18.00;;;15.10;99.90;;;;;;5021984;28;20489;-70
2021/05/01 12:21:08;;;;;;;21.90;16.77;;;15.10;99.90;;;;;;5023074;28;20552;-70
2021/05/01 12:23:55;;;;;;;24.57;17.27;;;15.10;99.90;;;;;;5022859;28;20818;-67
2021/05/01 12:26:36;;;;;;;26.87;19.47;;;15.10;99.90;;;;;;4991198;28;20237;-71
2021/05/01 12:29:23;;;;;;;23.40;18.23;;;15.20;99.90;;;;;;5022179;28;20423;-72
2021/05/01 12:32:06;;;;;;;20.13;16.87;;;15.20;99.90;;;;;;5021137;28;20444;-70
2021/05/01 12:34:56;;;;;;;18.03;15.43;;;15.30;99.90;;;;;;5018242;28;20448;-70
2021/05/01 12:37:25;;;;;;;22.00;17.10;;;15.50;99.90;;;;;;5014857;28;21447;-68
2021/05/01 12:39:51;;;;;;;21.60;17.17;;;15.60;99.90;;;;;;5018214;28;20438;-70
2021/05/01 12:42:34;;;;;;;18.97;15.97;;;15.70;99.90;;;;;;4999066;28;20539;-70
2021/05/01 12:45:22;;;;;;;22.37;17.27;;;15.80;99.90;;;;;;5018951;28;20439;-70